San Javier, Bolivia
Current Conditions -  °F | °C
As of 8:00 AM on Friday 28 Nov 2014 (Local Time) from SLSI Reporting Station
Light Rain Light Rain  
Wind Chill: 72°   Ceiling: 1300
Heat Index: 72°   Visibility: 5mi
Dew Point: 72°   Wind: 0mph
Humidity: 100%   Direction: NA
Pressure: 29.91"   Gusts: NA
Location:  16.27°S, 62.47°W
Report Text: SLSI 281200Z 00000KT 8000 -RA BKN013 OVC070 22/22 Q1013
Loading
Personal Weather Stations






























Interactive Weather Map New forecast layout! Learn more

10-Day Weather Forecast

Advertisements
Track Severe Weather on mobile